createdAt,value
2022-12-25T00:01:09.144Z,99885.44
2022-12-25T00:03:38.294Z,99883.09
2022-12-25T00:06:06.372Z,99884.41
2022-12-25T00:08:34.524Z,99888.91
2022-12-25T00:11:07.785Z,99894.69
2022-12-25T00:13:35.680Z,99898.41
2022-12-25T00:16:12.801Z,99904.38
2022-12-25T00:18:40.437Z,99909.47
2022-12-25T00:21:08.381Z,99904.91
2022-12-25T00:23:36.081Z,99901.19
2022-12-25T00:26:10.486Z,99894.69
2022-12-25T00:28:39.042Z,99897.13
2022-12-25T00:31:09.199Z,99904.81
2022-12-25T00:33:38.219Z,99907.69
2022-12-25T00:36:06.720Z,99911.50
2022-12-25T00:38:35.637Z,99913.81
2022-12-25T00:41:07.719Z,99915.34
2022-12-25T00:43:35.973Z,99921.72
2022-12-25T00:46:05.048Z,99917.16
2022-12-25T00:48:33.856Z,99928.38
2022-12-25T00:51:04.796Z,99931.25
2022-12-25T00:53:33.011Z,99937.53
2022-12-25T00:56:04.762Z,99943.84
2022-12-25T00:58:33.730Z,99950.75
2022-12-25T01:01:01.980Z,99949.13
2022-12-25T01:03:29.941Z,99952.19
2022-12-25T01:06:00.729Z,99955.84
2022-12-25T01:08:34.416Z,99949.28
2022-12-25T01:11:08.432Z,99953.06
2022-12-25T01:13:37.621Z,99953.78
2022-12-25T01:16:10.317Z,99945.81
2022-12-25T01:18:39.272Z,99951.28
2022-12-25T01:21:13.499Z,99963.91
2022-12-25T01:23:41.444Z,99960.31
2022-12-25T01:26:11.635Z,99954.13
2022-12-25T01:28:39.679Z,99962.00
2022-12-25T01:31:12.619Z,99951.47
2022-12-25T01:33:41.369Z,99951.28
2022-12-25T01:36:20.614Z,99961.25
2022-12-25T01:38:49.183Z,99961.66
2022-12-25T01:41:19.292Z,99963.56
2022-12-25T01:44:08.859Z,99964.41
2022-12-25T01:46:36.860Z,99960.19
2022-12-25T01:49:08.837Z,99958.31
2022-12-25T01:51:43.559Z,99965.66
2022-12-25T01:54:23.951Z,99966.41
2022-12-25T01:56:53.863Z,99970.37
2022-12-25T01:59:22.789Z,99969.31
2022-12-25T02:01:51.138Z,99971.44
2022-12-25T02:04:33.587Z,99966.88
2022-12-25T02:07:01.294Z,99962.03
2022-12-25T02:09:29.348Z,99960.75
2022-12-25T02:11:57.061Z,99971.31
2022-12-25T02:14:25.669Z,99974.25
2022-12-25T02:17:08.594Z,99974.25
2022-12-25T02:19:54.801Z,99974.19
2022-12-25T02:22:50.437Z,99970.97
2022-12-25T02:25:56.545Z,99972.41
2022-12-25T02:28:24.470Z,99975.00
2022-12-25T02:31:07.764Z,99965.88
2022-12-25T02:33:44.114Z,99967.66
2022-12-25T02:36:14.369Z,99971.19
2022-12-25T02:38:42.524Z,99978.13
2022-12-25T02:41:14.300Z,99972.28
2022-12-25T02:43:43.842Z,99982.91
2022-12-25T02:46:14.483Z,99990.00
2022-12-25T02:48:46.166Z,99990.22
2022-12-25T02:51:16.071Z,99991.16
2022-12-25T02:53:46.008Z,99998.34
2022-12-25T02:56:13.831Z,100007.53
2022-12-25T02:58:42.803Z,100002.50
2022-12-25T03:01:17.900Z,100000.88
2022-12-25T03:03:47.012Z,100000.06
2022-12-25T03:06:16.211Z,100004.94
2022-12-25T03:08:46.802Z,100004.69
2022-12-25T03:11:14.499Z,100007.84
2022-12-25T03:13:43.466Z,100005.69
2022-12-25T03:16:11.139Z,100013.56
2022-12-25T03:18:39.036Z,100014.09
2022-12-25T03:21:07.039Z,100019.22
2022-12-25T03:23:35.564Z,100032.22
2022-12-25T03:26:03.765Z,100030.53
2022-12-25T03:28:31.725Z,100038.13
2022-12-25T03:31:14.976Z,100038.88
2022-12-25T03:33:56.036Z,100037.31
2022-12-25T03:36:46.629Z,100049.47
2022-12-25T03:39:24.096Z,100042.34
2022-12-25T03:41:58.953Z,100050.37
2022-12-25T03:44:39.724Z,100055.06
2022-12-25T03:47:07.212Z,100049.03
2022-12-25T03:49:45.682Z,100046.94
2022-12-25T03:52:14.748Z,100046.69
2022-12-25T03:54:43.408Z,100049.34
2022-12-25T03:57:11.904Z,100054.84
2022-12-25T03:59:39.759Z,100043.50
2022-12-25T04:02:08.252Z,100040.75
2022-12-25T04:04:36.621Z,100041.97
2022-12-25T04:07:04.267Z,100052.94
2022-12-25T04:09:31.890Z,100057.00
2022-12-25T04:12:02.701Z,100063.38
2022-12-25T04:14:30.732Z,100065.91
2022-12-25T04:16:58.397Z,100058.56
2022-12-25T04:19:26.268Z,100062.75
2022-12-25T04:21:54.026Z,100050.19
2022-12-25T04:24:21.666Z,100044.00
2022-12-25T04:26:49.821Z,100044.69
2022-12-25T04:29:17.483Z,100051.06
2022-12-25T04:31:45.226Z,100052.66
2022-12-25T04:34:13.247Z,100057.25
2022-12-25T04:36:40.902Z,100062.19
2022-12-25T04:39:09.809Z,100060.69
2022-12-25T04:41:37.716Z,100061.00
2022-12-25T04:44:05.442Z,100058.50
2022-12-25T04:46:33.074Z,100057.31
2022-12-25T04:49:01.045Z,100054.09
2022-12-25T04:51:28.697Z,100050.06
2022-12-25T04:53:56.495Z,100051.75
2022-12-25T04:56:24.417Z,100050.28
2022-12-25T04:58:52.012Z,100046.97
2022-12-25T05:01:19.984Z,100048.03
2022-12-25T05:03:48.163Z,100057.37
2022-12-25T05:06:15.910Z,100055.13
2022-12-25T05:08:43.529Z,100063.97
2022-12-25T05:11:13.582Z,100064.53
2022-12-25T05:13:41.362Z,100072.75
2022-12-25T05:16:14.071Z,100079.66
2022-12-25T05:18:42.085Z,100080.25
2022-12-25T05:21:11.767Z,100075.16
2022-12-25T05:23:39.812Z,100066.53
2022-12-25T05:26:08.212Z,100073.41
2022-12-25T05:28:36.058Z,100080.72
2022-12-25T05:31:03.763Z,100086.28
2022-12-25T05:33:31.781Z,100080.16
2022-12-25T05:36:03.235Z,100074.03
2022-12-25T05:38:31.447Z,100080.87
2022-12-25T05:40:59.218Z,100083.12
2022-12-25T05:43:28.533Z,100076.53
2022-12-25T05:45:57.180Z,100075.09
2022-12-25T05:48:24.874Z,100079.75
2022-12-25T05:50:52.519Z,100086.03
2022-12-25T05:53:20.509Z,100085.00
2022-12-25T05:55:48.356Z,100084.50
2022-12-25T05:58:16.048Z,100092.28
2022-12-25T06:00:44.277Z,100105.28
2022-12-25T06:03:12.147Z,100101.66
2022-12-25T06:05:39.864Z,100114.38
2022-12-25T06:08:08.023Z,100104.56
2022-12-25T06:10:38.485Z,100108.50
2022-12-25T06:13:06.203Z,100108.50
2022-12-25T06:15:33.932Z,100112.03
2022-12-25T06:18:02.220Z,100106.47
2022-12-25T06:20:29.927Z,100110.88
2022-12-25T06:22:57.513Z,100115.31
2022-12-25T06:25:25.336Z,100112.16
2022-12-25T06:27:53.247Z,100108.34
2022-12-25T06:30:20.972Z,100108.97
2022-12-25T06:32:49.065Z,100097.56
2022-12-25T06:35:16.706Z,100101.50
2022-12-25T06:37:44.336Z,100115.34
2022-12-25T06:40:12.512Z,100106.81
2022-12-25T06:42:40.532Z,100109.94
2022-12-25T06:45:08.650Z,100116.62
2022-12-25T06:47:37.777Z,100114.78
2022-12-25T06:50:06.534Z,100116.31
2022-12-25T06:52:34.237Z,100117.91
2022-12-25T06:55:03.074Z,100114.56
2022-12-25T06:57:30.762Z,100117.22
2022-12-25T07:00:01.430Z,100115.63
2022-12-25T07:02:31.329Z,100127.38
2022-12-25T07:05:00.540Z,100134.94
2022-12-25T07:07:28.445Z,100138.50
2022-12-25T07:10:01.909Z,100140.38
2022-12-25T07:12:29.676Z,100152.84
2022-12-25T07:15:01.744Z,100148.91
2022-12-25T07:17:30.104Z,100148.59
2022-12-25T07:19:57.773Z,100151.88
2022-12-25T07:22:29.253Z,100151.31
2022-12-25T07:24:56.955Z,100156.16
2022-12-25T07:27:24.952Z,100151.88
2022-12-25T07:29:52.575Z,100164.44
2022-12-25T07:32:20.227Z,100175.19
2022-12-25T07:34:48.454Z,100180.66
2022-12-25T07:37:16.232Z,100184.81
2022-12-25T07:39:43.960Z,100188.41
2022-12-25T07:42:21.736Z,100197.28
2022-12-25T07:44:57.989Z,100201.94
2022-12-25T07:47:26.008Z,100202.66
2022-12-25T07:49:53.773Z,100211.91
2022-12-25T07:52:21.415Z,100216.69
2022-12-25T07:54:49.627Z,100219.16
2022-12-25T07:57:17.451Z,100219.22
2022-12-25T07:59:45.952Z,100209.09
2022-12-25T08:02:14.426Z,100225.72
2022-12-25T08:04:42.811Z,100214.53
2022-12-25T08:07:14.191Z,100222.28
2022-12-25T08:09:42.178Z,100231.25
2022-12-25T08:12:09.825Z,100221.16
2022-12-25T08:14:37.549Z,100215.56
2022-12-25T08:17:05.480Z,100212.47
2022-12-25T08:19:33.444Z,100219.47
2022-12-25T08:22:01.096Z,100223.66
2022-12-25T08:24:29.045Z,100211.22
2022-12-25T08:26:56.837Z,100213.69
2022-12-25T08:29:27.685Z,100210.03
2022-12-25T08:32:02.065Z,100217.25
2022-12-25T08:34:29.640Z,100220.56
2022-12-25T08:36:57.723Z,100223.75
2022-12-25T08:39:30.129Z,100233.47
2022-12-25T08:41:58.067Z,100245.97
2022-12-25T08:44:25.672Z,100240.50
2022-12-25T08:46:55.909Z,100249.03
2022-12-25T08:49:23.940Z,100252.44
2022-12-25T08:51:51.709Z,100252.88
2022-12-25T08:54:21.886Z,100253.03
2022-12-25T08:56:50.115Z,100251.88
2022-12-25T08:59:17.781Z,100258.22
2022-12-25T09:01:45.489Z,100258.75
2022-12-25T09:04:13.833Z,100255.22
2022-12-25T09:07:31.254Z,100265.44
2022-12-25T09:09:59.255Z,100265.44
2022-12-25T09:12:26.542Z,100260.50
2022-12-25T09:14:53.763Z,100274.72
2022-12-25T09:17:21.277Z,100271.47
2022-12-25T09:19:48.562Z,100265.25
2022-12-25T09:22:15.753Z,100263.72
2022-12-25T09:24:43.276Z,100268.66
2022-12-25T09:27:10.573Z,100269.16
2022-12-25T09:29:37.796Z,100270.34
2022-12-25T09:32:06.072Z,100269.38
2022-12-25T09:34:33.339Z,100276.84
2022-12-25T09:37:00.787Z,100274.13
2022-12-25T09:39:28.354Z,100274.94
2022-12-25T09:41:58.808Z,100280.00
2022-12-25T09:44:29.200Z,100279.59
2022-12-25T09:47:03.723Z,100272.59
2022-12-25T09:49:52.423Z,100267.91
2022-12-25T09:52:34.891Z,100265.78
2022-12-25T09:55:20.629Z,100272.47
2022-12-25T09:57:51.712Z,100286.34
2022-12-25T10:00:22.242Z,100283.03
2022-12-25T10:03:10.385Z,100282.75
2022-12-25T10:06:01.623Z,100282.28
2022-12-25T10:08:57.796Z,100280.09
2022-12-25T10:11:47.823Z,100285.81
2022-12-25T10:14:46.401Z,100280.75
2022-12-25T10:17:44.970Z,100275.16
2022-12-25T10:20:15.289Z,100280.75
2022-12-25T10:22:45.118Z,100268.94
2022-12-25T10:25:21.059Z,100271.75
2022-12-25T10:27:51.798Z,100264.78
2022-12-25T10:30:21.941Z,100267.72
2022-12-25T10:32:49.744Z,100262.44
2022-12-25T10:35:19.723Z,100266.31
2022-12-25T10:38:17.838Z,100265.62
2022-12-25T10:41:21.268Z,100250.28
2022-12-25T10:43:56.553Z,100259.25
2022-12-25T10:46:27.231Z,100261.16
2022-12-25T10:48:57.633Z,100252.25
2022-12-25T10:51:32.582Z,100253.09
2022-12-25T10:54:01.911Z,100254.50
2022-12-25T10:56:29.210Z,100243.84
2022-12-25T10:59:07.001Z,100247.47
2022-12-25T11:01:34.854Z,100246.63
2022-12-25T11:04:02.320Z,100239.34
2022-12-25T11:06:32.089Z,100243.34
2022-12-25T11:09:03.345Z,100242.34
2022-12-25T11:11:30.894Z,100238.56
2022-12-25T11:14:01.037Z,100239.16
2022-12-25T11:16:35.418Z,100223.81
2022-12-25T11:19:02.908Z,100225.31
2022-12-25T11:21:32.938Z,100221.41
2022-12-25T11:24:05.376Z,100217.50
2022-12-25T11:26:56.600Z,100221.91
2022-12-25T11:29:30.799Z,100216.44
2022-12-25T11:32:00.044Z,100224.97
2022-12-25T11:34:41.670Z,100217.09
2022-12-25T11:37:14.657Z,100215.44
2022-12-25T11:39:42.253Z,100220.66
2022-12-25T11:42:24.936Z,100220.50
2022-12-25T11:45:06.881Z,100212.50
2022-12-25T11:47:50.719Z,100214.44
2022-12-25T11:50:37.971Z,100218.34
2022-12-25T11:53:07.661Z,100217.78
2022-12-25T11:55:41.427Z,100210.66
2022-12-25T11:58:33.105Z,100219.19
2022-12-25T12:01:02.907Z,100214.44
2022-12-25T12:03:36.500Z,100211.25
2022-12-25T12:06:12.936Z,100209.00
2022-12-25T12:08:40.847Z,100204.03
2022-12-25T12:11:21.203Z,100210.09
2022-12-25T12:13:48.616Z,100211.22
2022-12-25T12:16:15.871Z,100203.91
2022-12-25T12:18:49.760Z,100198.00
2022-12-25T12:21:20.742Z,100199.13
2022-12-25T12:24:07.191Z,100198.66
2022-12-25T12:26:38.038Z,100205.81
2022-12-25T12:29:08.952Z,100208.03
2022-12-25T12:31:48.865Z,100206.06
2022-12-25T12:34:27.913Z,100205.66
2022-12-25T12:37:04.660Z,100216.75
2022-12-25T12:39:41.820Z,100226.09
2022-12-25T12:42:20.617Z,100216.97
2022-12-25T12:44:49.635Z,100221.28
2022-12-25T12:47:30.916Z,100225.25
2022-12-25T12:49:59.658Z,100222.41
2022-12-25T12:52:38.459Z,100211.16
2022-12-25T12:55:11.196Z,100216.94
2022-12-25T12:57:39.534Z,100210.13
2022-12-25T13:00:17.419Z,100212.66
2022-12-25T13:03:03.623Z,100216.34
2022-12-25T13:05:40.936Z,100211.72
2022-12-25T13:08:33.231Z,100211.13
2022-12-25T13:11:24.025Z,100223.75
2022-12-25T13:13:53.372Z,100221.72
2022-12-25T13:16:27.684Z,100215.78
2022-12-25T13:18:55.970Z,100223.00
2022-12-25T13:21:29.981Z,100225.19
2022-12-25T13:24:00.822Z,100227.44
2022-12-25T13:26:28.642Z,100229.69
2022-12-25T13:28:56.101Z,100222.38
2022-12-25T13:31:28.341Z,100230.91
2022-12-25T13:33:57.802Z,100225.78
2022-12-25T13:36:31.391Z,100224.09
2022-12-25T13:38:59.328Z,100226.75
2022-12-25T13:41:41.211Z,100228.66
2022-12-25T13:44:24.963Z,100230.22
2022-12-25T13:46:52.492Z,100235.72
2022-12-25T13:49:22.498Z,100228.91
2022-12-25T13:51:50.640Z,100219.47
2022-12-25T13:54:18.925Z,100231.47
2022-12-25T13:56:49.659Z,100234.47
2022-12-25T13:59:19.120Z,100229.88
2022-12-25T14:01:48.298Z,100227.00
2022-12-25T14:04:23.935Z,100237.81
2022-12-25T14:06:52.277Z,100238.53
2022-12-25T14:09:23.159Z,100234.38
2022-12-25T14:11:51.463Z,100233.37
2022-12-25T14:14:25.880Z,100230.06
2022-12-25T14:16:58.835Z,100229.06
2022-12-25T14:19:30.102Z,100241.00
2022-12-25T14:22:01.160Z,100235.28
2022-12-25T14:24:30.352Z,100239.19
2022-12-25T14:27:06.907Z,100235.34
2022-12-25T14:29:41.221Z,100240.25
2022-12-25T14:32:15.160Z,100249.38
2022-12-25T14:34:43.741Z,100246.44
2022-12-25T14:37:20.154Z,100246.56
2022-12-25T14:40:01.551Z,100253.03
2022-12-25T14:42:31.493Z,100257.53
2022-12-25T14:45:06.789Z,100255.88
2022-12-25T14:47:53.651Z,100253.19
2022-12-25T14:50:33.837Z,100250.13
2022-12-25T14:53:01.436Z,100245.16
2022-12-25T14:55:30.197Z,100239.28
2022-12-25T14:58:00.248Z,100236.56
2022-12-25T15:00:39.123Z,100244.63
2022-12-25T15:05:43.458Z,100266.59
2022-12-25T15:08:10.608Z,100262.88
2022-12-25T15:13:27.088Z,100268.94
2022-12-25T15:16:11.111Z,100262.31
2022-12-25T15:18:41.277Z,100262.38
2022-12-25T15:21:22.520Z,100261.06
2022-12-25T15:23:50.054Z,100257.06
2022-12-25T15:26:17.296Z,100246.63
2022-12-25T15:28:44.522Z,100263.75
2022-12-25T15:31:41.595Z,100265.38
2022-12-25T15:34:27.019Z,100264.34
2022-12-25T15:36:54.577Z,100257.41
2022-12-25T15:39:21.810Z,100263.34
2022-12-25T15:41:49.255Z,100255.62
2022-12-25T15:44:23.729Z,100255.19
2022-12-25T15:47:01.275Z,100260.69
2022-12-25T15:49:29.008Z,100254.03
2022-12-25T15:51:56.242Z,100259.72
2022-12-25T15:54:24.173Z,100260.50
2022-12-25T15:56:55.152Z,100269.59
2022-12-25T15:59:22.944Z,100275.56
2022-12-25T16:01:55.561Z,100271.84
2022-12-25T16:04:24.405Z,100269.72
2022-12-25T16:06:52.087Z,100258.69
2022-12-25T16:09:19.958Z,100253.91
2022-12-25T16:11:48.810Z,100254.09
2022-12-25T16:14:16.240Z,100258.13
2022-12-25T16:16:43.647Z,100256.03
2022-12-25T16:19:11.161Z,100260.91
2022-12-25T16:21:43.804Z,100264.44
2022-12-25T16:24:11.578Z,100260.66
2022-12-25T16:26:39.111Z,100255.28
2022-12-25T16:29:07.911Z,100256.84
2022-12-25T16:31:36.730Z,100252.59
2022-12-25T16:34:05.549Z,100248.56
2022-12-25T16:36:33.527Z,100249.91
2022-12-25T16:39:01.213Z,100253.72
2022-12-25T16:41:28.433Z,100249.12
2022-12-25T16:43:55.657Z,100251.03
2022-12-25T16:46:23.289Z,100247.13
2022-12-25T16:48:50.598Z,100245.13
2022-12-25T16:51:19.630Z,100240.16
2022-12-25T16:53:47.413Z,100236.19
2022-12-25T16:56:18.023Z,100242.59
2022-12-25T16:58:46.056Z,100228.19
2022-12-25T17:01:18.695Z,100233.00
2022-12-25T17:03:48.244Z,100227.37
2022-12-25T17:06:17.196Z,100216.91
2022-12-25T17:08:44.422Z,100223.75
2022-12-25T17:11:12.368Z,100226.09
2022-12-25T17:13:39.932Z,100218.97
2022-12-25T17:16:24.983Z,100218.81
2022-12-25T17:19:00.979Z,100224.25
2022-12-25T17:21:28.914Z,100226.72
2022-12-25T17:24:02.410Z,100217.50
2022-12-25T17:26:31.970Z,100223.69
2022-12-25T17:28:59.886Z,100215.59
2022-12-25T17:31:27.448Z,100229.63
2022-12-25T17:33:54.788Z,100229.12
2022-12-25T17:36:23.369Z,100225.28
2022-12-25T17:38:50.642Z,100228.75
2022-12-25T17:41:19.433Z,100232.94
2022-12-25T17:43:48.028Z,100232.81
2022-12-25T17:46:25.268Z,100222.06
2022-12-25T17:48:54.990Z,100213.37
2022-12-25T17:51:24.693Z,100202.81
2022-12-25T17:53:54.238Z,100199.78
2022-12-25T17:56:22.813Z,100190.13
2022-12-25T17:58:54.938Z,100187.94
2022-12-25T18:01:23.561Z,100186.97
2022-12-25T18:03:51.826Z,100196.69
2022-12-25T18:06:21.809Z,100196.13
2022-12-25T18:08:53.836Z,100205.56
2022-12-25T18:11:24.679Z,100200.06
2022-12-25T18:13:55.167Z,100201.22
2022-12-25T18:16:24.435Z,100194.19
2022-12-25T18:18:52.992Z,100199.34
2022-12-25T18:21:21.899Z,100196.50
2022-12-25T18:23:54.895Z,100198.12
2022-12-25T18:26:22.149Z,100196.41
2022-12-25T18:28:50.320Z,100199.34
2022-12-25T18:31:20.574Z,100202.25
2022-12-25T18:33:48.075Z,100205.38
2022-12-25T18:36:18.545Z,100199.47
2022-12-25T18:38:46.419Z,100199.06
2022-12-25T18:41:13.826Z,100195.69
2022-12-25T18:43:53.218Z,100190.34
2022-12-25T18:46:27.075Z,100190.34
2022-12-25T18:48:56.824Z,100181.19
2022-12-25T18:51:26.079Z,100179.19
2022-12-25T18:54:03.959Z,100187.19
2022-12-25T18:56:31.192Z,100201.84
2022-12-25T18:59:01.313Z,100181.44
2022-12-25T19:01:31.970Z,100192.75
2022-12-25T19:04:05.018Z,100186.22
2022-12-25T19:06:37.542Z,100190.25
2022-12-25T19:09:05.877Z,100183.13
2022-12-25T19:11:33.442Z,100171.19
2022-12-25T19:14:01.856Z,100173.47
2022-12-25T19:16:31.262Z,100177.69
2022-12-25T19:19:01.615Z,100179.06
2022-12-25T19:21:29.290Z,100176.34
2022-12-25T19:23:56.502Z,100174.97
2022-12-25T19:26:26.747Z,100168.50
2022-12-25T19:28:56.978Z,100175.78
2022-12-25T19:31:27.522Z,100172.72
2022-12-25T19:33:54.809Z,100162.00
2022-12-25T19:36:30.889Z,100168.28
2022-12-25T19:39:01.279Z,100173.03
2022-12-25T19:41:34.601Z,100165.75
2022-12-25T19:44:02.185Z,100160.09
2022-12-25T19:46:37.298Z,100165.13
2022-12-25T19:49:16.791Z,100163.94
2022-12-25T19:51:47.007Z,100163.94
2022-12-25T19:54:15.951Z,100174.34
2022-12-25T19:56:43.387Z,100176.22
2022-12-25T19:59:12.057Z,100177.03
2022-12-25T20:01:39.669Z,100177.25
2022-12-25T20:04:08.245Z,100174.06
2022-12-25T20:06:39.095Z,100174.00
2022-12-25T20:09:09.322Z,100164.00
2022-12-25T20:11:37.583Z,100160.81
2022-12-25T20:14:05.884Z,100150.47
2022-12-25T20:16:35.781Z,100140.25
2022-12-25T20:19:03.119Z,100131.50
2022-12-25T20:21:30.423Z,100125.78
2022-12-25T20:23:58.426Z,100116.50
2022-12-25T20:26:28.403Z,100112.59
2022-12-25T20:28:55.671Z,100115.06
2022-12-25T20:31:25.284Z,100111.34
2022-12-25T20:33:53.246Z,100111.59
2022-12-25T20:36:22.414Z,100109.53
2022-12-25T20:38:50.501Z,100103.12
2022-12-25T20:41:30.252Z,100112.66
2022-12-25T20:43:58.213Z,100110.69
2022-12-25T20:46:25.936Z,100109.25
2022-12-25T20:48:53.951Z,100108.09
2022-12-25T20:51:26.832Z,100106.78
2022-12-25T20:53:54.763Z,100110.47
2022-12-25T20:56:24.487Z,100111.87
2022-12-25T20:58:56.641Z,100113.66
2022-12-25T21:01:24.680Z,100110.31
2022-12-25T21:03:52.515Z,100125.09
2022-12-25T21:06:22.969Z,100117.31
2022-12-25T21:08:52.770Z,100113.31
2022-12-25T21:11:20.036Z,100114.47
2022-12-25T21:13:47.639Z,100104.87
2022-12-25T21:16:17.979Z,100106.00
2022-12-25T21:18:45.630Z,100100.03
2022-12-25T21:21:13.250Z,100104.09
2022-12-25T21:23:43.096Z,100113.97
2022-12-25T21:26:35.059Z,100106.78
2022-12-25T21:29:08.771Z,100111.19
2022-12-25T21:31:36.236Z,100102.63
2022-12-25T21:34:06.650Z,100104.16
2022-12-25T21:36:37.558Z,100107.78
2022-12-25T21:39:06.945Z,100116.06
2022-12-25T21:41:36.488Z,100128.22
2022-12-25T21:44:05.805Z,100126.59
2022-12-25T21:46:35.639Z,100123.34
2022-12-25T21:49:03.136Z,100123.50
2022-12-25T21:51:32.354Z,100108.97
2022-12-25T21:54:00.386Z,100104.63
2022-12-25T21:56:32.159Z,100101.69
2022-12-25T21:59:00.434Z,100093.28
2022-12-25T22:01:28.347Z,100111.78
2022-12-25T22:03:56.442Z,100114.84
2022-12-25T22:06:23.683Z,100114.72
2022-12-25T22:08:50.971Z,100119.03
2022-12-25T22:11:18.688Z,100117.09
2022-12-25T22:13:45.963Z,100109.31
2022-12-25T22:16:15.800Z,100118.34
2022-12-25T22:18:45.079Z,100115.16
2022-12-25T22:21:21.788Z,100117.84
2022-12-25T22:23:51.670Z,100112.00
2022-12-25T22:26:20.973Z,100115.72
2022-12-25T22:28:50.073Z,100112.69
2022-12-25T22:31:17.416Z,100109.91
2022-12-25T22:33:44.720Z,100105.22
2022-12-25T22:36:16.259Z,100101.72
2022-12-25T22:38:43.503Z,100102.94
2022-12-25T22:41:10.750Z,100106.00
2022-12-25T22:44:15.264Z,100109.84
2022-12-25T22:46:25.509Z,100108.72
2022-12-25T22:48:53.104Z,100113.16
2022-12-25T22:51:20.391Z,100120.94
2022-12-25T22:53:47.688Z,100124.87
2022-12-25T22:56:15.376Z,100120.53
2022-12-25T22:58:42.632Z,100108.03
2022-12-25T23:01:10.905Z,100100.19
2022-12-25T23:03:38.824Z,100097.31
2022-12-25T23:06:09.239Z,100107.72
2022-12-25T23:08:36.491Z,100100.19
2022-12-25T23:11:05.551Z,100100.81
2022-12-25T23:13:32.777Z,100094.87
2022-12-25T23:16:00.209Z,100101.06
2022-12-25T23:18:27.897Z,100089.38
2022-12-25T23:20:59.755Z,100099.16
2022-12-25T23:23:27.040Z,100098.41
2022-12-25T23:25:54.530Z,100093.94
2022-12-25T23:28:22.046Z,100107.25
2022-12-25T23:30:49.760Z,100098.81
2022-12-25T23:33:19.852Z,100097.13
2022-12-25T23:35:47.089Z,100095.56
2022-12-25T23:38:14.326Z,100078.41
2022-12-25T23:40:41.854Z,100066.53
2022-12-25T23:43:09.073Z,100076.44
2022-12-25T23:45:36.308Z,100080.72
2022-12-25T23:48:03.893Z,100084.13
2022-12-25T23:50:31.127Z,100073.66
2022-12-25T23:52:58.378Z,100066.31
2022-12-25T23:55:25.918Z,100059.88
2022-12-25T23:57:53.196Z,100061.25
